Time;durP1;ratioP1;P1;durP2;ratioP2;P2;SDS_P1;SDS_P2;PMS_P1;PMS_P2;Temp;Humidity;BMP_temperature;BMP_pressure;BME280_temperature;BME280_humidity;BME280_pressure;Samples;Min_cycle;Max_cycle;Signal;HPM_P1;HPM_P2
2024/04/23 00:00:14;;;;;;;2.20;0.70;;;;;;;7.50;100.00;100763.65;106191;1257;67128;-57
2024/04/23 00:02:41;;;;;;;1.20;0.80;;;;;;;7.53;100.00;100763.41;109204;1252;72651;-57
2024/04/23 00:05:08;;;;;;;1.40;1.10;;;;;;;7.58;100.00;100761.89;109148;1252;60222;-57
2024/04/23 00:07:34;;;;;;;1.20;1.00;;;;;;;7.60;100.00;100763.81;109219;1252;59137;-57
2024/04/23 00:10:02;;;;;;;2.10;1.20;;;;;;;7.60;100.00;100759.34;109168;1252;74918;-55
2024/04/23 00:12:28;;;;;;;1.00;0.90;;;;;;;7.60;100.00;100765.59;109202;1253;65661;-56
2024/04/23 00:14:55;;;;;;;1.50;1.10;;;;;;;7.62;100.00;100765.20;109085;1253;73279;-57
2024/04/23 00:17:22;;;;;;;4.30;1.50;;;;;;;7.64;100.00;100767.33;109111;1252;60674;-57
2024/04/23 00:19:48;;;;;;;0.90;0.80;;;;;;;7.64;100.00;100765.90;109255;1253;60150;-56
2024/04/23 00:22:15;;;;;;;4.40;1.40;;;;;;;7.65;100.00;100763.73;109127;1253;73178;-57
2024/04/23 00:24:42;;;;;;;4.50;1.00;;;;;;;7.66;100.00;100765.83;109133;1253;68399;-57
2024/04/23 00:27:08;;;;;;;2.40;0.90;;;;;;;7.69;100.00;100764.36;109199;1252;73156;-57
2024/04/23 00:29:35;;;;;;;3.20;0.90;;;;;;;7.71;100.00;100766.27;109121;1252;61764;-56
2024/04/23 00:32:02;;;;;;;2.00;0.80;;;;;;;7.75;100.00;100768.16;109151;1252;59611;-56
2024/04/23 00:34:29;;;;;;;1.90;1.10;;;;;;;7.78;100.00;100766.13;108411;1253;75820;-56
2024/04/23 00:36:57;;;;;;;1.70;1.10;;;;;;;7.80;100.00;100765.55;106240;1253;67020;-56
2024/04/23 00:39:24;;;;;;;1.20;1.00;;;;;;;7.83;100.00;100768.35;109150;1252;75302;-57
2024/04/23 00:41:51;;;;;;;5.40;1.00;;;;;;;7.84;100.00;100770.29;109264;1253;58914;-56
2024/04/23 00:44:18;;;;;;;1.70;0.90;;;;;;;7.82;100.00;100770.87;109016;1252;60218;-55
2024/04/23 00:46:45;;;;;;;1.60;1.10;;;;;;;7.82;100.00;100771.61;109186;1252;73464;-54
2024/04/23 00:49:13;;;;;;;3.80;1.20;;;;;;;7.82;100.00;100768.02;109209;1253;67090;-56
2024/04/23 00:51:45;;;;;;;1.80;0.80;;;;;;;7.81;100.00;100769.48;109228;1253;72537;-57
2024/04/23 00:54:12;;;;;;;1.20;0.90;;;;;;;7.81;100.00;100773.58;107709;1255;62141;-56
2024/04/23 00:56:39;;;;;;;3.30;0.90;;;;;;;7.82;100.00;100773.93;107345;1253;61239;-57
2024/04/23 00:59:06;;;;;;;2.20;0.80;;;;;;;7.82;100.00;100772.11;106116;1256;73943;-57
2024/04/23 01:01:35;;;;;;;1.00;0.90;;;;;;;7.84;100.00;100772.42;106175;1260;67811;-56
2024/04/23 01:04:05;;;;;;;1.60;1.10;;;;;;;7.86;100.00;100772.94;106873;1256;73128;-55
2024/04/23 01:06:32;;;;;;;2.70;0.90;;;;;;;7.87;100.00;100775.59;106790;1255;61639;-56
2024/04/23 01:08:59;;;;;;;3.30;1.00;;;;;;;7.87;100.00;100774.34;109050;1253;59241;-56
2024/04/23 01:11:26;;;;;;;1.20;0.90;;;;;;;7.86;100.00;100779.55;107366;1253;73388;-56
2024/04/23 01:13:52;;;;;;;2.20;1.10;;;;;;;7.84;100.00;100782.42;107544;1253;68105;-56
2024/04/23 01:16:20;;;;;;;1.80;0.90;;;;;;;7.83;100.00;100783.36;106153;1253;72850;-57
2024/04/23 01:18:47;;;;;;;1.20;1.10;;;;;;;7.81;100.00;100781.09;106245;1257;61897;-57
2024/04/23 01:21:16;;;;;;;1.30;0.80;;;;;;;7.78;100.00;100777.20;106124;1257;61672;-56
2024/04/23 01:23:49;;;;;;;4.50;1.20;;;;;;;7.78;100.00;100781.14;106589;1253;73479;-55
2024/04/23 01:26:16;;;;;;;4.20;0.80;;;;;;;7.80;100.00;100780.04;106122;1253;68219;-55
2024/04/23 01:28:43;;;;;;;1.60;1.00;;;;;;;7.82;100.00;100782.31;108193;1256;73059;-55
2024/04/23 01:31:10;;;;;;;1.40;0.90;;;;;;;7.84;100.00;100781.36;106757;1253;61234;-56
2024/04/23 01:33:37;;;;;;;1.30;0.80;;;;;;;7.86;100.00;100784.54;106180;1253;61112;-55
2024/04/23 01:36:05;;;;;;;2.40;1.10;;;;;;;7.87;100.00;100786.30;106094;1253;73419;-56
2024/04/23 01:38:32;;;;;;;2.30;1.30;;;;;;;7.88;100.00;100788.80;107048;1253;67095;-56
2024/04/23 01:40:58;;;;;;;3.80;1.10;;;;;;;7.87;100.00;100791.31;106086;1253;72829;-56
2024/04/23 01:43:25;;;;;;;3.50;1.40;;;;;;;7.86;100.00;100794.02;106151;1255;62280;-54
2024/04/23 01:45:52;;;;;;;3.30;1.30;;;;;;;7.85;100.00;100797.25;106061;1255;61649;-54
2024/04/23 01:48:20;;;;;;;6.90;1.60;;;;;;;7.82;100.00;100797.67;106174;1257;76271;-57
2024/04/23 01:50:47;;;;;;;1.40;0.90;;;;;;;7.78;100.00;100801.50;107148;1253;67053;-58
2024/04/23 01:53:14;;;;;;;2.10;1.80;;;;;;;7.74;100.00;100804.06;106077;1263;73576;-56
2024/04/23 01:55:40;;;;;;;1.70;1.60;;;;;;;7.73;100.00;100807.34;106270;1259;62061;-56
2024/04/23 01:58:07;;;;;;;2.80;2.10;;;;;;;7.75;100.00;100811.57;106069;1256;62133;-56
2024/04/23 02:00:34;;;;;;;2.60;2.20;;;;;;;7.79;100.00;100812.39;106179;1252;75633;-57
2024/04/23 02:03:01;;;;;;;3.40;3.10;;;;;;;7.83;100.00;100813.20;106056;1253;68140;-56
2024/04/23 02:05:28;;;;;;;5.30;3.90;;;;;;;7.87;100.00;100820.10;106625;1256;72515;-57
2024/04/23 02:07:55;;;;;;;5.10;4.60;;;;;;;7.88;100.00;100821.15;106112;1253;62285;-57
2024/04/23 02:10:22;;;;;;;7.10;5.00;;;;;;;7.89;100.00;100821.31;107748;1253;61742;-57
2024/04/23 02:12:49;;;;;;;4.70;4.30;;;;;;;7.89;100.00;100822.92;108544;1256;75010;-57
2024/04/23 02:15:15;;;;;;;4.90;3.70;;;;;;;7.88;100.00;100825.61;105965;1259;68130;-57
2024/04/23 02:17:42;;;;;;;3.70;3.40;;;;;;;7.86;100.00;100827.62;106766;1253;73572;-56
2024/04/23 02:20:10;;;;;;;2.80;2.30;;;;;;;7.83;100.00;100827.30;106041;1256;62978;-55
2024/04/23 02:22:37;;;;;;;3.80;2.40;;;;;;;7.82;100.00;100828.41;106330;1256;61253;-55
2024/04/23 02:25:04;;;;;;;2.90;1.70;;;;;;;7.81;100.00;100828.08;106151;1256;74258;-55
2024/04/23 02:27:31;;;;;;;1.80;1.50;;;;;;;7.81;100.00;100828.79;106192;1253;66734;-55
2024/04/23 02:29:59;;;;;;;3.20;1.90;;;;;;;7.82;100.00;100826.98;106143;1273;73242;-56
2024/04/23 02:32:26;;;;;;;5.40;1.70;;;;;;;7.83;100.00;100823.56;106438;1253;61170;-56
2024/04/23 02:34:53;;;;;;;2.90;1.90;;;;;;;7.83;100.00;100826.41;106097;1256;63274;-55
2024/04/23 02:37:20;;;;;;;3.00;2.50;;;;;;;7.82;100.00;100827.86;106126;1256;74502;-55
2024/04/23 02:39:46;;;;;;;3.50;2.20;;;;;;;7.80;100.00;100825.42;106166;1253;67004;-55
2024/04/23 02:42:13;;;;;;;3.10;1.80;;;;;;;7.78;100.00;100831.52;106179;1253;71974;-57
2024/04/23 02:44:40;;;;;;;2.50;1.60;;;;;;;7.77;100.00;100831.36;106088;1254;61281;-56
2024/04/23 02:47:07;;;;;;;3.40;2.10;;;;;;;7.76;100.00;100836.02;106501;1259;61317;-57
2024/04/23 02:49:34;;;;;;;4.50;1.70;;;;;;;7.77;100.00;100839.95;106178;1253;73700;-56
2024/04/23 02:52:01;;;;;;;1.70;1.40;;;;;;;7.77;100.00;100841.36;109137;1253;67081;-56
2024/04/23 02:54:27;;;;;;;2.00;1.70;;;;;;;7.80;100.00;100842.04;109158;1253;73880;-55
2024/04/23 02:56:54;;;;;;;2.80;1.70;;;;;;;7.83;100.00;100850.72;109287;1253;59770;-57
2024/04/23 02:59:21;;;;;;;2.00;1.90;;;;;;;7.85;100.00;100848.54;107717;1257;60929;-55
2024/04/23 03:01:48;;;;;;;5.90;2.10;;;;;;;7.86;100.00;100850.13;106142;1253;74896;-55
2024/04/23 03:04:15;;;;;;;3.60;2.60;;;;;;;7.85;100.00;100859.44;108986;1253;65942;-54
2024/04/23 03:06:42;;;;;;;4.80;2.00;;;;;;;7.84;100.00;100859.81;109064;1253;72246;-56
2024/04/23 03:09:08;;;;;;;4.70;2.20;;;;;;;7.81;100.00;100864.00;109122;1252;61932;-54
2024/04/23 03:11:35;;;;;;;3.30;1.40;;;;;;;7.76;100.00;100863.54;109245;1252;59688;-55
2024/04/23 03:14:02;;;;;;;2.40;1.50;;;;;;;7.74;100.00;100866.63;109122;1253;76064;-55
2024/04/23 03:16:29;;;;;;;3.00;1.60;;;;;;;7.74;100.00;100864.67;109158;1253;67008;-56
2024/04/23 03:18:56;;;;;;;1.80;1.20;;;;;;;7.74;100.00;100863.58;109263;1253;71251;-54
2024/04/23 03:21:22;;;;;;;2.20;2.10;;;;;;;7.76;100.00;100862.10;109041;1253;60773;-56
2024/04/23 03:23:49;;;;;;;2.10;1.80;;;;;;;7.78;100.00;100861.91;109149;1253;59995;-56
2024/04/23 03:26:16;;;;;;;6.50;2.10;;;;;;;7.79;100.00;100862.43;109272;1253;74731;-55
2024/04/23 03:28:42;;;;;;;2.40;2.00;;;;;;;7.80;100.00;100860.81;109089;1253;66763;-56
2024/04/23 03:31:09;;;;;;;2.00;1.70;;;;;;;7.78;100.00;100861.37;109232;1253;71314;-55
2024/04/23 03:33:36;;;;;;;3.20;1.80;;;;;;;7.77;100.00;100866.39;109210;1252;60730;-54
2024/04/23 03:36:02;;;;;;;1.60;1.10;;;;;;;7.76;100.00;100866.40;109211;1253;59104;-55
2024/04/23 03:38:29;;;;;;;3.80;1.60;;;;;;;7.77;100.00;100868.71;109186;1252;74492;-56
2024/04/23 03:40:56;;;;;;;1.70;1.30;;;;;;;7.78;100.00;100875.84;109096;1253;66875;-54
2024/04/23 03:43:23;;;;;;;2.00;1.40;;;;;;;7.78;100.00;100878.16;109074;1253;72329;-55
2024/04/23 03:45:50;;;;;;;1.60;1.50;;;;;;;7.81;100.00;100878.13;109261;1253;58975;-56
2024/04/23 03:48:16;;;;;;;2.10;1.30;;;;;;;7.84;100.00;100883.40;109093;1253;59038;-55
2024/04/23 03:50:43;;;;;;;2.10;1.80;;;;;;;7.84;100.00;100887.87;107244;1257;74467;-55
2024/04/23 03:53:10;;;;;;;2.50;2.10;;;;;;;7.83;100.00;100891.10;109154;1253;67097;-56
2024/04/23 03:55:37;;;;;;;1.70;1.60;;;;;;;7.83;100.00;100894.14;109261;1253;72513;-55
2024/04/23 03:58:03;;;;;;;4.10;1.80;;;;;;;7.82;100.00;100898.13;106239;1258;62232;-55
2024/04/23 04:00:30;;;;;;;1.30;1.20;;;;;;;7.78;100.00;100904.25;106503;1253;61283;-57
2024/04/23 04:07:58;;;;;;;3.00;1.10;;;;;;;7.73;100.00;100931.52;105744;1271;61932;-56
2024/04/23 04:10:26;;;;;;;1.30;1.10;;;;;;;7.74;100.00;100932.02;108218;1266;60001;-57
2024/04/23 04:12:53;;;;;;;1.80;1.00;;;;;;;7.77;100.00;100936.42;108226;1270;71857;-55
2024/04/23 04:15:40;;;;;;;1.80;1.60;;;;;;;7.80;100.00;100939.60;105230;1266;66862;-56
2024/04/23 04:18:06;;;;;;;2.50;1.00;;;;;;;7.80;100.00;100936.21;105139;1264;226181;-56
2024/04/23 04:20:33;;;;;;;7.00;1.90;;;;;;;7.79;100.00;100937.30;105369;1269;61166;-55
2024/04/23 04:23:00;;;;;;;3.40;1.20;;;;;;;7.78;100.00;100939.29;105412;1268;59739;-54
2024/04/23 04:25:27;;;;;;;2.70;1.10;;;;;;;7.74;100.00;100943.48;105489;1268;75723;-56
2024/04/23 04:27:54;;;;;;;1.30;1.10;;;;;;;7.71;100.00;100943.34;105745;1268;68248;-55
2024/04/23 04:30:21;;;;;;;1.90;0.90;;;;;;;7.69;100.00;100945.52;106251;1268;72661;-56
2024/04/23 04:32:48;;;;;;;1.00;0.90;;;;;;;7.68;100.00;100940.16;105337;1264;61504;-56
2024/04/23 04:35:15;;;;;;;1.40;0.90;;;;;;;7.69;100.00;100939.61;105305;1264;61072;-55
2024/04/23 04:37:42;;;;;;;2.60;0.80;;;;;;;7.71;100.00;100943.52;105745;1266;73960;-55
2024/04/23 04:40:09;;;;;;;1.40;1.10;;;;;;;7.75;100.00;100946.30;105402;1270;68074;-57
2024/04/23 04:42:36;;;;;;;2.30;1.10;;;;;;;7.76;100.00;100944.32;105486;1262;72572;-56
2024/04/23 04:45:04;;;;;;;2.70;1.20;;;;;;;7.73;100.00;100943.31;105935;1264;61204;-56
2024/04/23 04:47:33;;;;;;;2.40;1.30;;;;;;;7.71;100.00;100936.91;105808;1268;60489;-56
2024/04/23 04:50:00;;;;;;;2.40;1.20;;;;;;;7.69;100.00;100936.04;108439;1263;72736;-56
2024/04/23 04:52:27;;;;;;;1.20;1.10;;;;;;;7.71;100.00;100936.02;105589;1262;69231;-55
2024/04/23 04:54:54;;;;;;;1.30;0.90;;;;;;;7.74;100.00;100935.25;107788;1262;72590;-55
2024/04/23 04:57:21;;;;;;;2.10;0.90;;;;;;;7.75;100.00;100924.48;105408;1267;60797;-55
2024/04/23 04:59:48;;;;;;;2.90;0.90;;;;;;;7.76;100.00;100912.67;105510;1263;60432;-56
2024/04/23 05:02:14;;;;;;;1.20;0.90;;;;;;;7.78;100.00;100914.09;105429;1262;74057;-55
2024/04/23 05:04:41;;;;;;;1.80;1.30;;;;;;;7.79;100.00;100916.04;105515;1263;67896;-56
2024/04/23 05:07:08;;;;;;;2.30;1.10;;;;;;;7.81;100.00;100921.54;105416;1268;72696;-56
2024/04/23 05:09:35;;;;;;;4.00;1.20;;;;;;;7.85;100.00;100928.60;105400;1266;60491;-56
2024/04/23 05:12:01;;;;;;;2.00;1.30;;;;;;;7.86;100.00;100929.84;105533;1265;60775;-56
2024/04/23 05:14:29;;;;;;;1.80;1.60;;;;;;;7.86;100.00;100936.80;105303;1266;71544;-57
2024/04/23 05:16:55;;;;;;;3.50;1.10;;;;;;;7.87;100.00;100938.92;105368;1263;67774;-56
2024/04/23 05:19:22;;;;;;;3.10;1.20;;;;;;;7.90;100.00;100937.10;105757;1263;72619;-56
2024/04/23 05:21:49;;;;;;;1.60;1.10;;;;;;;7.95;100.00;100939.14;105438;1268;60480;-56
2024/04/23 05:24:16;;;;;;;1.50;1.10;;;;;;;8.01;100.00;100941.88;105347;1271;60665;-55
2024/04/23 05:26:43;;;;;;;1.80;1.00;;;;;;;8.05;100.00;100940.73;105666;1264;73739;-54
2024/04/23 05:29:09;;;;;;;1.30;1.20;;;;;;;8.09;100.00;100945.48;106223;1263;67639;-55
2024/04/23 05:34:22;;;;;;;1.60;1.10;;;;;;;8.17;100.00;100956.05;105319;1266;60502;-57
2024/04/23 05:36:48;;;;;;;1.50;0.90;;;;;;;8.22;100.00;100953.45;108586;1263;59068;-56
2024/04/23 05:39:15;;;;;;;2.90;1.00;;;;;;;8.31;100.00;100954.90;108415;1263;72971;-56
2024/04/23 05:41:42;;;;;;;1.00;0.80;;;;;;;8.41;100.00;100956.34;105659;1265;66688;-56
2024/04/23 05:44:09;;;;;;;1.10;0.90;;;;;;;8.47;100.00;100956.38;106510;1267;72558;-55
2024/04/23 05:46:36;;;;;;;1.20;1.10;;;;;;;8.52;100.00;100956.81;105415;1264;60455;-55
2024/04/23 05:49:40;;;;;;;2.00;1.10;;;;;;;8.57;100.00;100953.85;105433;1263;59689;-55
2024/04/23 05:53:04;;;;;;;1.60;1.40;;;;;;;8.64;100.00;100960.69;105427;1267;72801;-55
2024/04/23 05:55:50;;;;;;;2.90;1.60;;;;;;;8.66;100.00;100960.27;105707;1265;66354;-56
2024/04/23 05:58:17;;;;;;;2.00;1.30;;;;;;;8.69;100.00;100964.31;105559;1267;72656;-55
2024/04/23 06:00:44;;;;;;;3.00;1.40;;;;;;;8.72;100.00;100962.47;105362;1264;60926;-56
2024/04/23 06:03:10;;;;;;;1.50;1.30;;;;;;;8.79;100.00;100964.83;105471;1263;60183;-55
2024/04/23 06:05:37;;;;;;;3.90;1.40;;;;;;;8.84;100.00;100962.55;105401;1268;74234;-56
2024/04/23 06:08:05;;;;;;;1.50;1.10;;;;;;;8.89;100.00;100963.70;105358;1268;66830;-56
2024/04/23 06:10:32;;;;;;;1.80;1.00;;;;;;;8.93;100.00;100962.55;108490;1263;71372;-57
2024/04/23 06:12:59;;;;;;;1.40;0.90;;;;;;;8.96;100.00;100966.42;108476;1265;61360;-56
2024/04/23 06:15:25;;;;;;;1.80;1.30;;;;;;;8.97;100.00;100972.13;108459;1264;61178;-55
2024/04/23 06:17:52;;;;;;;1.80;1.10;;;;;;;8.97;100.00;100974.45;108500;1264;73478;-57
2024/04/23 06:20:19;;;;;;;1.10;1.00;;;;;;;8.96;100.00;100974.29;108456;1263;65580;-55
2024/04/23 06:22:48;;;;;;;2.20;1.10;;;;;;;8.99;100.00;100979.06;108432;1263;73225;-54
2024/04/23 06:25:16;;;;;;;1.90;0.80;;;;;;;9.03;100.00;100974.83;108545;1263;61081;-55
2024/04/23 06:27:43;;;;;;;1.10;0.90;;;;;;;9.04;100.00;100974.47;108433;1265;60296;-55
2024/04/23 06:30:16;;;;;;;1.00;0.90;;;;;;;9.06;100.00;100979.25;108536;1262;72816;-55
2024/04/23 06:32:42;;;;;;;1.30;0.80;;;;;;;9.13;100.00;100976.59;108486;1262;67581;-55
2024/04/23 06:35:09;;;;;;;3.40;0.80;;;;;;;9.24;100.00;100977.05;108662;1260;72586;-55
2024/04/23 06:37:37;;;;;;;1.30;1.00;;;;;;;9.37;100.00;100974.95;108536;1262;59330;-55
2024/04/23 06:40:08;;;;;;;1.60;1.10;;;;;;;9.48;100.00;100977.71;108555;1265;61076;-54
2024/04/23 06:42:37;;;;;;;2.30;1.40;;;;;;;9.54;100.00;100982.42;108661;1262;74058;-55
2024/04/23 06:45:04;;;;;;;2.50;1.30;;;;;;;9.54;100.00;100986.54;108540;1262;65902;-53
2024/04/23 06:47:33;;;;;;;1.40;1.20;;;;;;;9.56;100.00;100987.39;108483;1263;72532;-56
2024/04/23 06:49:59;;;;;;;1.20;1.00;;;;;;;9.60;100.00;100983.89;108537;1263;60431;-56
2024/04/23 06:52:27;;;;;;;2.30;1.20;;;;;;;9.68;100.00;100988.86;108543;1262;60639;-55
2024/04/23 06:54:53;;;;;;;2.20;1.10;;;;;;;9.78;100.00;100989.15;106041;1265;74315;-54
2024/04/23 06:57:20;;;;;;;1.00;0.90;;;;;;;9.87;100.00;100991.43;105464;1263;67065;-55
2024/04/23 06:59:47;;;;;;;1.00;0.90;;;;;;;9.95;100.00;100995.17;105469;1262;74692;-56
2024/04/23 07:02:15;;;;;;;1.20;0.90;;;;;;;9.99;100.00;100999.02;105510;1272;60394;-56
2024/04/23 07:04:42;;;;;;;1.40;1.00;;;;;;;10.05;100.00;100997.97;108547;1262;60417;-55
2024/04/23 07:07:08;;;;;;;2.20;1.10;;;;;;;10.13;100.00;100998.82;108610;1262;75483;-56
2024/04/23 07:09:35;;;;;;;1.60;1.10;;;;;;;10.20;100.00;100999.39;108617;1262;66833;-56
2024/04/23 07:12:03;;;;;;;2.90;1.10;;;;;;;10.30;100.00;100999.30;108534;1264;72445;-55
2024/04/23 07:14:30;;;;;;;4.40;1.00;;;;;;;10.39;100.00;100997.61;108357;1262;60559;-55
2024/04/23 07:16:57;;;;;;;1.20;1.10;;;;;;;10.49;100.00;100999.66;105548;1262;60729;-55
2024/04/23 07:19:23;;;;;;;2.00;1.20;;;;;;;10.58;100.00;101001.89;105509;1265;74442;-55
2024/04/23 07:21:50;;;;;;;1.10;1.00;;;;;;;10.66;100.00;101002.04;105441;1265;66872;-57
2024/04/23 07:24:17;;;;;;;1.70;1.00;;;;;;;10.71;100.00;101002.06;105524;1273;72287;-55
2024/04/23 07:26:45;;;;;;;1.10;1.00;;;;;;;10.78;100.00;100996.30;105505;1262;60746;-56
2024/04/23 07:29:12;;;;;;;2.70;1.30;;;;;;;10.88;100.00;100997.09;106377;1265;60153;-56
2024/04/23 07:31:39;;;;;;;2.90;0.90;;;;;;;10.99;100.00;100994.40;105576;1265;73464;-55
2024/04/23 07:34:06;;;;;;;1.80;0.80;;;;;;;11.10;100.00;100996.95;105501;1268;66538;-53
2024/04/23 07:36:33;;;;;;;2.10;0.90;;;;;;;11.17;100.00;100999.79;105547;1263;73086;-54
2024/04/23 07:38:59;;;;;;;2.30;1.10;;;;;;;11.23;100.00;100996.52;105420;1263;60739;-54
2024/04/23 07:41:27;;;;;;;1.00;0.90;;;;;;;11.34;100.00;100990.08;106710;1265;60485;-53
2024/04/23 07:43:53;;;;;;;1.00;0.90;;;;;;;11.49;100.00;100987.82;105417;1268;74107;-55
2024/04/23 07:46:20;;;;;;;2.10;1.00;;;;;;;11.58;100.00;100990.02;105452;1263;68242;-53
2024/04/23 07:48:47;;;;;;;1.30;0.80;;;;;;;11.70;100.00;100991.42;105421;1278;72362;-54
2024/04/23 07:51:14;;;;;;;1.10;0.70;;;;;;;11.84;100.00;100988.64;105457;1261;60265;-54
2024/04/23 07:53:41;;;;;;;0.90;0.70;;;;;;;12.01;100.00;100989.70;107242;1263;60662;-54
2024/04/23 07:56:10;;;;;;;1.00;0.90;;;;;;;12.17;100.00;100991.44;105428;1278;73026;-56
2024/04/23 07:58:38;;;;;;;3.90;1.00;;;;;;;12.28;100.00;100996.45;105846;1260;67209;-55
2024/04/23 08:01:05;;;;;;;1.10;0.90;;;;;;;12.36;100.00;100994.54;105497;1261;72538;-55
2024/04/23 08:03:34;;;;;;;1.10;1.00;;;;;;;12.42;100.00;100997.56;106293;1266;60452;-55
2024/04/23 08:06:02;;;;;;;1.40;0.90;;;;;;;12.48;100.00;101000.98;105936;1261;60633;-54
2024/04/23 08:08:29;;;;;;;2.20;1.20;;;;;;;12.54;100.00;101003.08;105481;1265;75387;-57
2024/04/23 08:10:56;;;;;;;3.30;1.60;;;;;;;12.53;100.00;101001.67;105744;1261;67138;-55
2024/04/23 08:13:23;;;;;;;1.20;1.00;;;;;;;12.49;100.00;100999.65;105463;1278;73051;-56
2024/04/23 08:15:49;;;;;;;2.50;1.20;;;;;;;12.46;100.00;101000.67;105434;1267;61237;-55
2024/04/23 08:18:16;;;;;;;1.10;1.00;;;;;;;12.40;100.00;100997.10;105478;1265;61228;-56
2024/04/23 08:20:43;;;;;;;0.90;0.80;;;;;;;12.35;100.00;100991.02;105400;1268;74477;-56
2024/04/23 08:23:10;;;;;;;3.10;1.00;;;;;;;12.35;100.00;100992.77;105387;1266;67281;-54
2024/04/23 08:25:37;;;;;;;1.40;1.00;;;;;;;12.41;100.00;100994.39;105492;1265;73540;-57
2024/04/23 08:28:04;;;;;;;1.40;0.70;;;;;;;12.46;100.00;100999.06;105319;1263;61542;-55
2024/04/23 08:30:32;;;;;;;0.80;0.80;;;;;;;12.48;100.00;100997.55;106620;1265;61299;-56
2024/04/23 08:32:59;;;;;;;2.30;0.90;;;;;;;12.50;100.00;100996.58;105470;1265;75599;-55
2024/04/23 08:35:26;;;;;;;4.30;0.80;;;;;;;12.52;100.00;100997.92;105340;1265;66506;-56
2024/04/23 08:37:56;;;;;;;0.60;0.60;;;;;;;12.52;100.00;100999.00;105343;1263;73611;-55
2024/04/23 08:40:26;;;;;;;1.60;0.90;;;;;;;12.53;100.00;101002.56;105626;1268;61326;-56
2024/04/23 08:42:54;;;;;;;0.60;0.60;;;;;;;12.54;100.00;101001.83;105904;1263;61274;-55
2024/04/23 08:45:22;;;;;;;2.80;0.60;;;;;;;12.53;100.00;101004.91;105722;1268;73679;-55
2024/04/23 08:47:49;;;;;;;0.80;0.70;;;;;;;12.54;100.00;101006.31;105871;1265;66875;-55
2024/04/23 08:50:18;;;;;;;0.80;0.70;;;;;;;12.57;100.00;100998.67;105645;1263;72559;-56
2024/04/23 08:52:47;;;;;;;0.80;0.70;;;;;;;12.60;100.00;101001.77;106854;1268;61356;-56
2024/04/23 08:55:14;;;;;;;1.80;0.80;;;;;;;12.61;100.00;101002.64;106078;1265;60930;-55
2024/04/23 08:57:41;;;;;;;1.80;0.60;;;;;;;12.62;100.00;101002.79;105420;1266;74548;-55
2024/04/23 09:00:09;;;;;;;2.10;0.70;;;;;;;12.64;100.00;101006.14;105807;1265;67105;-56
2024/04/23 09:02:36;;;;;;;1.30;0.80;;;;;;;12.64;100.00;101009.38;105899;1261;72553;-55
2024/04/23 09:05:04;;;;;;;2.90;0.60;;;;;;;12.62;100.00;101009.27;108609;1260;60283;-54
2024/04/23 09:07:33;;;;;;;2.80;0.50;;;;;;;12.60;100.00;101002.30;108571;1260;60309;-55
2024/04/23 09:10:08;;;;;;;0.70;0.70;;;;;;;12.62;100.00;101008.92;108602;1261;74234;-55
2024/04/23 09:12:35;;;;;;;1.30;0.70;;;;;;;12.64;100.00;101007.23;105697;1266;67749;-54
2024/04/23 09:15:03;;;;;;;0.80;0.60;;;;;;;12.67;100.00;101009.98;108478;1263;72912;-54
2024/04/23 09:17:32;;;;;;;0.60;0.50;;;;;;;12.71;100.00;101011.08;108646;1262;59259;-54
2024/04/23 09:20:01;;;;;;;0.90;0.50;;;;;;;12.78;100.00;101012.63;108485;1268;59726;-54
2024/04/23 09:22:28;;;;;;;0.70;0.70;;;;;;;12.85;100.00;101008.95;108593;1262;74556;-55
2024/04/23 09:25:04;;;;;;;0.70;0.70;;;;;;;12.87;100.00;101001.28;108681;1261;67284;-53
2024/04/23 09:27:35;;;;;;;1.60;0.60;;;;;;;12.83;100.00;101008.11;108616;1261;72750;-53
2024/04/23 09:30:03;;;;;;;0.60;0.60;;;;;;;12.78;100.00;101008.65;108412;1260;59908;-54
2024/04/23 09:32:30;;;;;;;0.70;0.60;;;;;;;12.77;100.00;101002.41;108764;1263;59980;-54
2024/04/23 09:34:57;;;;;;;0.70;0.50;;;;;;;12.80;100.00;101002.66;108558;1260;74673;-54
2024/04/23 09:37:23;;;;;;;0.70;0.60;;;;;;;12.84;100.00;101000.30;108581;1265;66855;-54
2024/04/23 09:39:50;;;;;;;0.60;0.50;;;;;;;12.90;100.00;101003.19;108688;1262;70910;-55
2024/04/23 09:42:23;;;;;;;1.20;0.50;;;;;;;12.96;100.00;101002.39;105738;1266;61295;-54
2024/04/23 09:44:50;;;;;;;0.50;0.50;;;;;;;13.05;100.00;101004.55;108615;1260;60950;-55
2024/04/23 09:47:17;;;;;;;0.50;0.50;;;;;;;13.13;100.00;101006.98;108415;1262;74965;-56
2024/04/23 09:49:46;;;;;;;0.40;0.40;;;;;;;13.18;100.00;101003.73;108620;1262;67167;-55
2024/04/23 09:52:13;;;;;;;1.00;0.60;;;;;;;13.29;100.00;101007.44;108418;1259;73245;-56
2024/04/23 09:54:40;;;;;;;2.70;0.50;;;;;;;13.45;100.00;101010.77;105403;1261;61359;-54
2024/04/23 09:57:07;;;;;;;0.50;0.50;;;;;;;13.61;100.00;101009.56;106415;1263;61366;-54
2024/04/23 09:59:33;;;;;;;0.70;0.50;;;;;;;13.76;100.00;101013.27;105366;1265;73835;-55
2024/04/23 10:02:01;;;;;;;1.50;0.50;;;;;;;13.87;100.00;101022.55;105394;1265;67055;-55
2024/04/23 10:04:28;;;;;;;0.70;0.50;;;;;;;13.95;100.00;101023.70;107373;1265;72405;-56
2024/04/23 10:06:56;;;;;;;0.90;0.40;;;;;;;14.02;100.00;101025.36;105669;1268;61126;-55
2024/04/23 10:09:27;;;;;;;0.60;0.50;;;;;;;14.13;100.00;101026.89;105216;1281;61651;-55
2024/04/23 10:12:02;;;;;;;0.80;0.50;;;;;;;14.25;100.00;101029.59;105683;1265;72659;-54
2024/04/23 10:15:04;;;;;;;0.40;0.40;;;;;;;14.39;100.00;101032.45;105816;1264;66913;-55
2024/04/23 10:17:37;;;;;;;1.60;0.50;;;;;;;14.51;100.00;101036.63;105452;1267;72544;-54
2024/04/23 10:20:04;;;;;;;0.30;0.30;;;;;;;14.58;100.00;101036.30;105403;1269;61747;-54
2024/04/23 10:22:31;;;;;;;0.40;0.40;;;;;;;14.62;100.00;101042.63;105343;1261;61196;-55
2024/04/23 10:24:58;;;;;;;0.90;0.30;;;;;;;14.66;100.00;101048.79;105329;1263;74644;-55
2024/04/23 10:27:25;;;;;;;3.20;0.40;;;;;;;14.70;100.00;101049.88;105364;1276;66356;-55
2024/04/23 10:29:52;;;;;;;1.90;0.40;;;;;;;14.73;100.00;101052.60;105352;1269;72643;-54
2024/04/23 10:32:20;;;;;;;0.40;0.40;;;;;;;14.76;100.00;101051.79;105395;1261;61372;-55
2024/04/23 10:34:47;;;;;;;0.90;0.30;;;;;;;14.79;100.00;101055.98;105436;1265;61225;-54
2024/04/23 10:37:15;;;;;;;2.80;0.40;;;;;;;14.84;100.00;101058.10;106199;1259;74994;-55
2024/04/23 10:39:42;;;;;;;1.20;0.60;;;;;;;14.89;100.00;101058.95;106018;1262;67409;-55
2024/04/23 10:42:08;;;;;;;1.00;0.30;;;;;;;14.91;100.00;101056.13;105731;1271;73171;-55
2024/04/23 10:44:36;;;;;;;1.00;0.30;;;;;;;14.94;100.00;101061.60;105635;1262;61324;-55
2024/04/23 10:47:02;;;;;;;1.80;0.50;;;;;;;14.93;100.00;101060.56;105739;1260;61483;-55
2024/04/23 10:49:36;;;;;;;0.30;0.30;;;;;;;14.92;100.00;101059.54;105684;1262;75374;-55
2024/04/23 10:52:03;;;;;;;0.40;0.40;;;;;;;14.93;100.00;101058.73;105861;1261;66888;-54
2024/04/23 10:54:30;;;;;;;0.40;0.40;;;;;;;14.95;100.00;101058.14;105707;1275;72431;-56
2024/04/23 10:57:01;;;;;;;0.40;0.40;;;;;;;14.97;100.00;101057.33;105782;1264;61335;-55
2024/04/23 10:59:31;;;;;;;0.30;0.30;;;;;;;14.99;100.00;101057.55;107371;1260;62189;-55
2024/04/23 11:02:00;;;;;;;2.50;0.50;;;;;;;15.02;100.00;101062.15;105819;1262;75012;-54
2024/04/23 11:04:39;;;;;;;1.40;0.40;;;;;;;15.05;100.00;101064.34;105859;1266;67166;-54
2024/04/23 11:07:11;;;;;;;0.40;0.30;;;;;;;15.06;100.00;101065.56;105792;1263;73030;-57
2024/04/23 11:09:44;;;;;;;0.60;0.20;;;;;;;15.05;100.00;101070.16;105785;1263;62257;-55
2024/04/23 11:12:18;;;;;;;0.50;0.40;;;;;;;15.03;100.00;101066.44;105908;1260;61244;-54
2024/04/23 11:14:45;;;;;;;0.40;0.30;;;;;;;15.00;100.00;101066.73;106033;1262;75456;-55
2024/04/23 11:17:12;;;;;;;0.80;0.30;;;;;;;14.99;100.00;101063.37;105784;1263;67471;-55
2024/04/23 11:19:40;;;;;;;0.50;0.40;;;;;;;14.96;100.00;101059.73;105927;1270;73356;-54
2024/04/23 11:22:13;;;;;;;0.30;0.20;;;;;;;14.93;100.00;101053.88;106507;1261;61304;-55
2024/04/23 11:24:45;;;;;;;0.90;0.20;;;;;;;14.90;100.00;101052.55;106096;1262;60960;-56